Washington Township, Ohio
Current Conditions -  °F | °C
As of 6:53 AM on Thursday 23 Oct 2014 (Local Time) from KMGY Reporting Station
Haze Haze  
Wind Chill: 39°   Ceiling: Unl
Heat Index: 39°   Visibility: 6mi
Dew Point: 37°   Wind: 3mph
Humidity: 93%   Direction: 40°NE
Pressure: 30.24"   Gusts: NA
Location:  39.6729°N, 84.0975°W
Report Text: KMGY 231053Z AUTO 04003KT 6SM BR CLR 04/03 A3024 RMK AO2 SLP244 T00390028
Loading
Personal Weather Stations






























Interactive Weather Map
Tropical Storm Tracking
New forecast layout! Learn more

10-Day Weather Forecast

Advertisements
Track Severe Weather on mobile